sensor_id;sensor_type;location;lat;lon;timestamp;P1;durP1;ratioP1;P2;durP2;ratioP2
55455;SDS011;63021;52.836;6.376;2023-05-14T00:00:10;13.38;;;9.15;;
55455;SDS011;63021;52.836;6.376;2023-05-14T00:02:36;13.23;;;9.70;;
55455;SDS011;63021;52.836;6.376;2023-05-14T00:05:02;22.38;;;10.10;;
55455;SDS011;63021;52.836;6.376;2023-05-14T00:07:27;16.73;;;11.15;;
55455;SDS011;63021;52.836;6.376;2023-05-14T00:09:55;17.98;;;10.25;;
55455;SDS011;63021;52.836;6.376;2023-05-14T00:12:21;11.32;;;8.90;;
55455;SDS011;63021;52.836;6.376;2023-05-14T00:14:46;14.38;;;9.45;;
55455;SDS011;63021;52.836;6.376;2023-05-14T00:17:11;12.55;;;10.32;;
55455;SDS011;63021;52.836;6.376;2023-05-14T00:19:37;15.18;;;10.35;;
55455;SDS011;63021;52.836;6.376;2023-05-14T00:22:05;18.83;;;10.25;;
55455;SDS011;63021;52.836;6.376;2023-05-14T00:24:31;12.52;;;10.25;;
55455;SDS011;63021;52.836;6.376;2023-05-14T00:26:57;16.35;;;10.40;;
55455;SDS011;63021;52.836;6.376;2023-05-14T00:29:23;19.70;;;11.15;;
55455;SDS011;63021;52.836;6.376;2023-05-14T00:31:48;13.98;;;10.45;;
55455;SDS011;63021;52.836;6.376;2023-05-14T00:34:13;16.98;;;10.93;;
55455;SDS011;63021;52.836;6.376;2023-05-14T00:36:39;16.48;;;12.68;;
55455;SDS011;63021;52.836;6.376;2023-05-14T00:39:04;14.20;;;10.32;;
55455;SDS011;63021;52.836;6.376;2023-05-14T00:41:30;18.95;;;12.00;;
55455;SDS011;63021;52.836;6.376;2023-05-14T00:43:55;16.77;;;11.32;;
55455;SDS011;63021;52.836;6.376;2023-05-14T00:46:20;18.73;;;11.98;;
55455;SDS011;63021;52.836;6.376;2023-05-14T00:48:46;18.00;;;12.20;;
55455;SDS011;63021;52.836;6.376;2023-05-14T00:51:11;14.88;;;11.50;;
55455;SDS011;63021;52.836;6.376;2023-05-14T00:53:37;19.35;;;12.77;;
55455;SDS011;63021;52.836;6.376;2023-05-14T00:56:03;17.65;;;11.07;;
55455;SDS011;63021;52.836;6.376;2023-05-14T00:58:29;18.35;;;11.68;;
55455;SDS011;63021;52.836;6.376;2023-05-14T01:00:55;20.55;;;11.57;;
55455;SDS011;63021;52.836;6.376;2023-05-14T01:03:20;19.10;;;11.65;;
55455;SDS011;63021;52.836;6.376;2023-05-14T01:08:23;13.77;;;11.73;;
55455;SDS011;63021;52.836;6.376;2023-05-14T01:10:57;20.15;;;12.90;;
55455;SDS011;63021;52.836;6.376;2023-05-14T01:13:50;17.58;;;11.88;;
55455;SDS011;63021;52.836;6.376;2023-05-14T01:16:40;16.33;;;11.60;;
55455;SDS011;63021;52.836;6.376;2023-05-14T01:19:09;17.15;;;12.43;;
55455;SDS011;63021;52.836;6.376;2023-05-14T01:21:45;15.57;;;11.45;;
55455;SDS011;63021;52.836;6.376;2023-05-14T01:24:10;15.38;;;11.55;;
55455;SDS011;63021;52.836;6.376;2023-05-14T01:26:36;16.38;;;12.38;;
55455;SDS011;63021;52.836;6.376;2023-05-14T01:29:09;15.25;;;11.32;;
55455;SDS011;63021;52.836;6.376;2023-05-14T01:31:39;13.70;;;11.10;;
55455;SDS011;63021;52.836;6.376;2023-05-14T01:34:08;14.30;;;10.65;;
55455;SDS011;63021;52.836;6.376;2023-05-14T01:36:37;15.25;;;11.57;;
55455;SDS011;63021;52.836;6.376;2023-05-14T01:39:04;13.98;;;10.60;;
55455;SDS011;63021;52.836;6.376;2023-05-14T01:41:33;14.75;;;11.05;;
55455;SDS011;63021;52.836;6.376;2023-05-14T01:44:00;14.70;;;10.10;;
55455;SDS011;63021;52.836;6.376;2023-05-14T01:46:29;15.32;;;11.38;;
55455;SDS011;63021;52.836;6.376;2023-05-14T01:48:55;16.05;;;12.35;;
55455;SDS011;63021;52.836;6.376;2023-05-14T01:51:21;14.98;;;10.88;;
55455;SDS011;63021;52.836;6.376;2023-05-14T01:53:46;16.88;;;10.80;;
55455;SDS011;63021;52.836;6.376;2023-05-14T01:56:11;13.50;;;11.27;;
55455;SDS011;63021;52.836;6.376;2023-05-14T01:58:37;13.43;;;10.48;;
55455;SDS011;63021;52.836;6.376;2023-05-14T02:01:02;14.95;;;10.68;;
55455;SDS011;63021;52.836;6.376;2023-05-14T02:03:28;13.40;;;10.10;;
55455;SDS011;63021;52.836;6.376;2023-05-14T02:05:53;15.18;;;11.60;;
55455;SDS011;63021;52.836;6.376;2023-05-14T02:08:18;14.68;;;11.15;;
55455;SDS011;63021;52.836;6.376;2023-05-14T02:10:44;15.85;;;11.43;;
55455;SDS011;63021;52.836;6.376;2023-05-14T02:13:09;17.88;;;11.85;;
55455;SDS011;63021;52.836;6.376;2023-05-14T02:15:35;15.55;;;10.95;;
55455;SDS011;63021;52.836;6.376;2023-05-14T02:18:00;12.85;;;10.13;;
55455;SDS011;63021;52.836;6.376;2023-05-14T02:20:25;14.52;;;9.93;;
55455;SDS011;63021;52.836;6.376;2023-05-14T02:22:51;16.15;;;10.98;;
55455;SDS011;63021;52.836;6.376;2023-05-14T02:25:16;16.58;;;10.68;;
55455;SDS011;63021;52.836;6.376;2023-05-14T02:27:42;13.18;;;10.18;;
55455;SDS011;63021;52.836;6.376;2023-05-14T02:30:07;13.48;;;12.05;;
55455;SDS011;63021;52.836;6.376;2023-05-14T02:32:33;14.52;;;11.45;;
55455;SDS011;63021;52.836;6.376;2023-05-14T02:34:58;14.73;;;9.65;;
55455;SDS011;63021;52.836;6.376;2023-05-14T02:37:24;16.23;;;10.18;;
55455;SDS011;63021;52.836;6.376;2023-05-14T02:39:49;14.48;;;10.18;;
55455;SDS011;63021;52.836;6.376;2023-05-14T02:42:14;14.10;;;10.05;;
55455;SDS011;63021;52.836;6.376;2023-05-14T02:44:40;13.63;;;10.27;;
55455;SDS011;63021;52.836;6.376;2023-05-14T02:47:05;14.82;;;10.38;;
55455;SDS011;63021;52.836;6.376;2023-05-14T02:49:31;17.13;;;9.60;;
55455;SDS011;63021;52.836;6.376;2023-05-14T02:51:56;16.05;;;10.00;;
55455;SDS011;63021;52.836;6.376;2023-05-14T02:54:22;15.85;;;8.95;;
55455;SDS011;63021;52.836;6.376;2023-05-14T02:56:47;12.98;;;9.18;;
55455;SDS011;63021;52.836;6.376;2023-05-14T02:59:13;40.78;;;11.68;;
55455;SDS011;63021;52.836;6.376;2023-05-14T03:01:38;16.80;;;9.43;;
55455;SDS011;63021;52.836;6.376;2023-05-14T03:04:04;16.48;;;9.18;;
55455;SDS011;63021;52.836;6.376;2023-05-14T03:06:29;14.73;;;9.02;;
55455;SDS011;63021;52.836;6.376;2023-05-14T03:08:55;9.73;;;8.65;;
55455;SDS011;63021;52.836;6.376;2023-05-14T03:11:20;16.77;;;10.90;;
55455;SDS011;63021;52.836;6.376;2023-05-14T03:13:46;19.27;;;10.15;;
55455;SDS011;63021;52.836;6.376;2023-05-14T03:16:11;12.43;;;8.90;;
55455;SDS011;63021;52.836;6.376;2023-05-14T03:18:37;10.75;;;9.52;;
55455;SDS011;63021;52.836;6.376;2023-05-14T03:21:02;11.93;;;8.20;;
55455;SDS011;63021;52.836;6.376;2023-05-14T03:23:28;15.20;;;8.65;;
55455;SDS011;63021;52.836;6.376;2023-05-14T03:25:55;10.52;;;8.20;;
55455;SDS011;63021;52.836;6.376;2023-05-14T03:28:21;12.43;;;8.23;;
55455;SDS011;63021;52.836;6.376;2023-05-14T03:30:46;10.77;;;8.50;;
55455;SDS011;63021;52.836;6.376;2023-05-14T03:33:12;10.07;;;8.40;;
55455;SDS011;63021;52.836;6.376;2023-05-14T03:35:37;11.10;;;8.10;;
55455;SDS011;63021;52.836;6.376;2023-05-14T03:38:03;12.25;;;8.25;;
55455;SDS011;63021;52.836;6.376;2023-05-14T03:40:28;13.40;;;8.98;;
55455;SDS011;63021;52.836;6.376;2023-05-14T03:42:54;14.00;;;8.48;;
55455;SDS011;63021;52.836;6.376;2023-05-14T03:45:20;12.10;;;8.15;;
55455;SDS011;63021;52.836;6.376;2023-05-14T03:47:45;11.35;;;9.07;;
55455;SDS011;63021;52.836;6.376;2023-05-14T03:50:10;11.15;;;8.80;;
55455;SDS011;63021;52.836;6.376;2023-05-14T03:52:36;11.63;;;9.02;;
55455;SDS011;63021;52.836;6.376;2023-05-14T03:55:01;16.33;;;8.05;;
55455;SDS011;63021;52.836;6.376;2023-05-14T03:57:27;15.23;;;8.73;;
55455;SDS011;63021;52.836;6.376;2023-05-14T03:59:53;13.10;;;7.63;;
55455;SDS011;63021;52.836;6.376;2023-05-14T04:02:18;11.48;;;8.40;;
55455;SDS011;63021;52.836;6.376;2023-05-14T04:04:43;11.75;;;9.15;;
55455;SDS011;63021;52.836;6.376;2023-05-14T04:07:09;13.95;;;8.35;;
55455;SDS011;63021;52.836;6.376;2023-05-14T04:09:34;13.30;;;8.50;;
55455;SDS011;63021;52.836;6.376;2023-05-14T04:11:59;10.75;;;8.50;;
55455;SDS011;63021;52.836;6.376;2023-05-14T04:14:25;12.20;;;8.43;;
55455;SDS011;63021;52.836;6.376;2023-05-14T04:16:50;14.00;;;9.13;;
55455;SDS011;63021;52.836;6.376;2023-05-14T04:19:16;8.80;;;7.90;;
55455;SDS011;63021;52.836;6.376;2023-05-14T04:21:41;10.80;;;8.75;;
55455;SDS011;63021;52.836;6.376;2023-05-14T04:24:06;13.23;;;8.80;;
55455;SDS011;63021;52.836;6.376;2023-05-14T04:26:32;15.82;;;9.50;;
55455;SDS011;63021;52.836;6.376;2023-05-14T04:28:57;14.38;;;8.77;;
55455;SDS011;63021;52.836;6.376;2023-05-14T04:31:27;12.63;;;8.68;;
55455;SDS011;63021;52.836;6.376;2023-05-14T04:33:53;9.93;;;8.93;;
55455;SDS011;63021;52.836;6.376;2023-05-14T04:36:18;11.23;;;9.23;;
55455;SDS011;63021;52.836;6.376;2023-05-14T04:38:44;10.30;;;9.20;;
55455;SDS011;63021;52.836;6.376;2023-05-14T04:41:09;14.65;;;8.75;;
55455;SDS011;63021;52.836;6.376;2023-05-14T04:43:34;20.85;;;9.13;;
55455;SDS011;63021;52.836;6.376;2023-05-14T04:46:00;15.10;;;9.23;;
55455;SDS011;63021;52.836;6.376;2023-05-14T04:48:25;14.40;;;9.77;;
55455;SDS011;63021;52.836;6.376;2023-05-14T04:50:51;14.68;;;10.05;;
55455;SDS011;63021;52.836;6.376;2023-05-14T04:53:17;16.40;;;10.70;;
55455;SDS011;63021;52.836;6.376;2023-05-14T04:55:42;16.17;;;10.18;;
55455;SDS011;63021;52.836;6.376;2023-05-14T04:58:08;18.42;;;10.45;;
55455;SDS011;63021;52.836;6.376;2023-05-14T05:00:33;17.27;;;10.25;;
55455;SDS011;63021;52.836;6.376;2023-05-14T05:02:58;16.15;;;10.55;;
55455;SDS011;63021;52.836;6.376;2023-05-14T05:05:24;16.58;;;10.60;;
55455;SDS011;63021;52.836;6.376;2023-05-14T05:07:49;22.08;;;11.68;;
55455;SDS011;63021;52.836;6.376;2023-05-14T05:10:15;18.58;;;12.05;;
55455;SDS011;63021;52.836;6.376;2023-05-14T05:12:40;21.92;;;13.55;;
55455;SDS011;63021;52.836;6.376;2023-05-14T05:15:06;19.90;;;13.73;;
55455;SDS011;63021;52.836;6.376;2023-05-14T05:17:33;22.13;;;13.13;;
55455;SDS011;63021;52.836;6.376;2023-05-14T05:19:59;22.23;;;12.60;;
55455;SDS011;63021;52.836;6.376;2023-05-14T05:22:24;22.33;;;14.10;;
55455;SDS011;63021;52.836;6.376;2023-05-14T05:24:49;26.48;;;14.32;;
55455;SDS011;63021;52.836;6.376;2023-05-14T05:27:15;27.30;;;15.23;;
55455;SDS011;63021;52.836;6.376;2023-05-14T05:29:40;25.85;;;15.43;;
55455;SDS011;63021;52.836;6.376;2023-05-14T05:32:08;20.10;;;15.05;;
55455;SDS011;63021;52.836;6.376;2023-05-14T05:34:33;25.05;;;14.77;;
55455;SDS011;63021;52.836;6.376;2023-05-14T05:37:00;28.52;;;15.13;;
55455;SDS011;63021;52.836;6.376;2023-05-14T05:39:25;24.45;;;14.98;;
55455;SDS011;63021;52.836;6.376;2023-05-14T05:41:50;21.45;;;14.10;;
55455;SDS011;63021;52.836;6.376;2023-05-14T05:44:16;28.13;;;15.07;;
55455;SDS011;63021;52.836;6.376;2023-05-14T05:46:41;26.10;;;15.20;;
55455;SDS011;63021;52.836;6.376;2023-05-14T05:49:07;23.05;;;14.80;;
55455;SDS011;63021;52.836;6.376;2023-05-14T05:51:32;24.38;;;14.85;;
55455;SDS011;63021;52.836;6.376;2023-05-14T05:53:57;28.52;;;15.77;;
55455;SDS011;63021;52.836;6.376;2023-05-14T05:56:23;25.73;;;15.43;;
55455;SDS011;63021;52.836;6.376;2023-05-14T05:58:48;22.35;;;13.80;;
55455;SDS011;63021;52.836;6.376;2023-05-14T06:01:14;25.27;;;15.52;;
55455;SDS011;63021;52.836;6.376;2023-05-14T06:03:39;23.73;;;14.27;;
55455;SDS011;63021;52.836;6.376;2023-05-14T06:06:04;20.38;;;14.05;;
55455;SDS011;63021;52.836;6.376;2023-05-14T06:08:30;27.33;;;14.98;;
55455;SDS011;63021;52.836;6.376;2023-05-14T06:10:56;26.65;;;14.70;;
55455;SDS011;63021;52.836;6.376;2023-05-14T06:13:21;19.70;;;12.35;;
55455;SDS011;63021;52.836;6.376;2023-05-14T06:15:47;20.98;;;14.02;;
55455;SDS011;63021;52.836;6.376;2023-05-14T06:18:12;20.67;;;13.30;;
55455;SDS011;63021;52.836;6.376;2023-05-14T06:20:37;25.15;;;12.50;;
55455;SDS011;63021;52.836;6.376;2023-05-14T06:23:03;20.70;;;11.73;;
55455;SDS011;63021;52.836;6.376;2023-05-14T06:25:30;19.15;;;11.60;;
55455;SDS011;63021;52.836;6.376;2023-05-14T06:27:55;14.95;;;10.15;;
55455;SDS011;63021;52.836;6.376;2023-05-14T06:30:20;21.80;;;10.80;;
55455;SDS011;63021;52.836;6.376;2023-05-14T06:32:46;18.77;;;12.07;;
55455;SDS011;63021;52.836;6.376;2023-05-14T06:35:11;15.25;;;9.95;;
55455;SDS011;63021;52.836;6.376;2023-05-14T06:37:36;18.08;;;11.23;;
55455;SDS011;63021;52.836;6.376;2023-05-14T06:40:02;24.00;;;10.77;;
55455;SDS011;63021;52.836;6.376;2023-05-14T06:42:28;18.70;;;9.25;;
55455;SDS011;63021;52.836;6.376;2023-05-14T06:44:53;24.67;;;9.25;;
55455;SDS011;63021;52.836;6.376;2023-05-14T06:47:19;18.55;;;9.68;;
55455;SDS011;63021;52.836;6.376;2023-05-14T06:49:45;17.05;;;9.43;;
55455;SDS011;63021;52.836;6.376;2023-05-14T06:52:10;16.42;;;8.73;;
55455;SDS011;63021;52.836;6.376;2023-05-14T06:54:36;21.60;;;9.98;;
55455;SDS011;63021;52.836;6.376;2023-05-14T06:57:01;17.88;;;8.75;;
55455;SDS011;63021;52.836;6.376;2023-05-14T06:59:27;17.42;;;9.20;;
55455;SDS011;63021;52.836;6.376;2023-05-14T07:01:52;16.77;;;8.55;;
55455;SDS011;63021;52.836;6.376;2023-05-14T07:04:18;19.52;;;9.55;;
55455;SDS011;63021;52.836;6.376;2023-05-14T07:06:43;18.95;;;9.40;;
55455;SDS011;63021;52.836;6.376;2023-05-14T07:09:08;15.68;;;9.18;;
55455;SDS011;63021;52.836;6.376;2023-05-14T07:11:34;24.70;;;10.32;;
55455;SDS011;63021;52.836;6.376;2023-05-14T07:14:00;15.52;;;9.48;;
55455;SDS011;63021;52.836;6.376;2023-05-14T07:16:25;19.35;;;10.02;;
55455;SDS011;63021;52.836;6.376;2023-05-14T07:18:51;19.85;;;10.50;;
55455;SDS011;63021;52.836;6.376;2023-05-14T07:21:16;18.15;;;9.23;;
55455;SDS011;63021;52.836;6.376;2023-05-14T07:23:42;13.50;;;9.00;;
55455;SDS011;63021;52.836;6.376;2023-05-14T07:26:07;14.27;;;9.18;;
55455;SDS011;63021;52.836;6.376;2023-05-14T07:28:33;22.85;;;10.77;;
55455;SDS011;63021;52.836;6.376;2023-05-14T07:30:59;16.38;;;9.00;;
55455;SDS011;63021;52.836;6.376;2023-05-14T07:33:24;21.08;;;9.40;;
55455;SDS011;63021;52.836;6.376;2023-05-14T07:35:50;15.43;;;9.35;;
55455;SDS011;63021;52.836;6.376;2023-05-14T07:38:17;19.20;;;9.80;;
55455;SDS011;63021;52.836;6.376;2023-05-14T07:40:43;20.63;;;9.10;;
55455;SDS011;63021;52.836;6.376;2023-05-14T07:43:09;19.95;;;8.63;;
55455;SDS011;63021;52.836;6.376;2023-05-14T07:45:37;22.30;;;9.70;;
55455;SDS011;63021;52.836;6.376;2023-05-14T07:48:03;13.70;;;7.88;;
55455;SDS011;63021;52.836;6.376;2023-05-14T07:50:29;18.27;;;8.90;;
55455;SDS011;63021;52.836;6.376;2023-05-14T07:52:55;21.35;;;8.25;;
55455;SDS011;63021;52.836;6.376;2023-05-14T07:55:20;15.13;;;7.93;;
55455;SDS011;63021;52.836;6.376;2023-05-14T07:57:45;15.63;;;7.80;;
55455;SDS011;63021;52.836;6.376;2023-05-14T08:00:11;19.27;;;8.15;;
55455;SDS011;63021;52.836;6.376;2023-05-14T08:02:37;14.73;;;7.70;;
55455;SDS011;63021;52.836;6.376;2023-05-14T08:05:02;12.65;;;7.90;;
55455;SDS011;63021;52.836;6.376;2023-05-14T08:07:28;14.63;;;7.32;;
55455;SDS011;63021;52.836;6.376;2023-05-14T08:09:54;12.25;;;7.20;;
55455;SDS011;63021;52.836;6.376;2023-05-14T08:12:19;13.60;;;7.03;;
55455;SDS011;63021;52.836;6.376;2023-05-14T08:14:45;16.83;;;8.20;;
55455;SDS011;63021;52.836;6.376;2023-05-14T08:17:10;12.65;;;7.32;;
55455;SDS011;63021;52.836;6.376;2023-05-14T08:19:36;14.18;;;7.28;;
55455;SDS011;63021;52.836;6.376;2023-05-14T08:22:01;18.23;;;6.45;;
55455;SDS011;63021;52.836;6.376;2023-05-14T08:24:27;11.30;;;6.00;;
55455;SDS011;63021;52.836;6.376;2023-05-14T08:26:53;11.82;;;6.40;;
55455;SDS011;63021;52.836;6.376;2023-05-14T08:29:19;14.30;;;6.38;;
55455;SDS011;63021;52.836;6.376;2023-05-14T08:31:44;12.55;;;6.60;;
55455;SDS011;63021;52.836;6.376;2023-05-14T08:34:10;10.18;;;6.28;;
55455;SDS011;63021;52.836;6.376;2023-05-14T08:36:35;12.77;;;6.93;;
55455;SDS011;63021;52.836;6.376;2023-05-14T08:39:00;9.82;;;6.03;;
55455;SDS011;63021;52.836;6.376;2023-05-14T08:41:26;9.43;;;6.40;;
55455;SDS011;63021;52.836;6.376;2023-05-14T08:44:11;12.77;;;6.72;;
55455;SDS011;63021;52.836;6.376;2023-05-14T08:46:37;12.05;;;6.32;;
55455;SDS011;63021;52.836;6.376;2023-05-14T08:49:20;9.95;;;5.95;;
55455;SDS011;63021;52.836;6.376;2023-05-14T08:51:57;12.98;;;5.68;;
55455;SDS011;63021;52.836;6.376;2023-05-14T08:54:24;13.20;;;6.07;;
55455;SDS011;63021;52.836;6.376;2023-05-14T08:56:51;11.38;;;5.97;;
55455;SDS011;63021;52.836;6.376;2023-05-14T08:59:17;8.35;;;5.57;;
55455;SDS011;63021;52.836;6.376;2023-05-14T09:01:43;12.13;;;6.20;;
55455;SDS011;63021;52.836;6.376;2023-05-14T09:04:12;8.98;;;6.50;;
55455;SDS011;63021;52.836;6.376;2023-05-14T09:06:43;11.40;;;5.85;;
55455;SDS011;63021;52.836;6.376;2023-05-14T09:09:12;14.77;;;6.90;;
55455;SDS011;63021;52.836;6.376;2023-05-14T09:11:42;13.05;;;6.18;;
55455;SDS011;63021;52.836;6.376;2023-05-14T09:14:09;10.70;;;6.03;;
55455;SDS011;63021;52.836;6.376;2023-05-14T09:16:35;16.08;;;6.55;;
55455;SDS011;63021;52.836;6.376;2023-05-14T09:19:01;12.43;;;5.75;;
55455;SDS011;63021;52.836;6.376;2023-05-14T09:21:28;6.88;;;5.18;;
55455;SDS011;63021;52.836;6.376;2023-05-14T09:23:54;8.80;;;4.93;;
55455;SDS011;63021;52.836;6.376;2023-05-14T09:26:24;12.23;;;5.47;;
55455;SDS011;63021;52.836;6.376;2023-05-14T09:28:54;7.30;;;4.63;;
55455;SDS011;63021;52.836;6.376;2023-05-14T09:31:21;11.65;;;5.43;;
55455;SDS011;63021;52.836;6.376;2023-05-14T09:33:50;12.15;;;6.25;;
55455;SDS011;63021;52.836;6.376;2023-05-14T09:36:16;9.35;;;5.03;;
55455;SDS011;63021;52.836;6.376;2023-05-14T09:38:42;8.73;;;4.65;;
55455;SDS011;63021;52.836;6.376;2023-05-14T09:41:07;9.23;;;5.65;;
55455;SDS011;63021;52.836;6.376;2023-05-14T09:43:33;13.98;;;4.93;;
55455;SDS011;63021;52.836;6.376;2023-05-14T09:45:58;11.57;;;5.80;;
55455;SDS011;63021;52.836;6.376;2023-05-14T09:48:24;9.80;;;5.45;;
55455;SDS011;63021;52.836;6.376;2023-05-14T09:50:49;10.70;;;5.45;;
55455;SDS011;63021;52.836;6.376;2023-05-14T09:53:16;11.25;;;5.05;;
55455;SDS011;63021;52.836;6.376;2023-05-14T09:55:43;11.45;;;4.85;;
55455;SDS011;63021;52.836;6.376;2023-05-14T09:58:09;15.73;;;5.88;;
55455;SDS011;63021;52.836;6.376;2023-05-14T10:00:35;7.68;;;4.78;;
55455;SDS011;63021;52.836;6.376;2023-05-14T10:03:04;10.40;;;5.13;;
55455;SDS011;63021;52.836;6.376;2023-05-14T10:05:35;11.50;;;5.47;;
55455;SDS011;63021;52.836;6.376;2023-05-14T10:08:14;10.63;;;5.53;;
55455;SDS011;63021;52.836;6.376;2023-05-14T10:10:49;15.45;;;6.18;;
55455;SDS011;63021;52.836;6.376;2023-05-14T10:13:19;9.23;;;5.50;;
55455;SDS011;63021;52.836;6.376;2023-05-14T10:15:49;10.63;;;5.22;;
55455;SDS011;63021;52.836;6.376;2023-05-14T10:18:21;11.70;;;5.20;;
55455;SDS011;63021;52.836;6.376;2023-05-14T10:20:50;14.27;;;5.90;;
55455;SDS011;63021;52.836;6.376;2023-05-14T10:23:21;12.05;;;6.07;;
55455;SDS011;63021;52.836;6.376;2023-05-14T10:25:47;17.90;;;5.95;;
55455;SDS011;63021;52.836;6.376;2023-05-14T10:28:13;6.78;;;5.20;;
55455;SDS011;63021;52.836;6.376;2023-05-14T10:30:45;10.60;;;4.53;;
55455;SDS011;63021;52.836;6.376;2023-05-14T10:33:11;7.38;;;4.75;;
55455;SDS011;63021;52.836;6.376;2023-05-14T10:38:28;11.93;;;5.72;;
55455;SDS011;63021;52.836;6.376;2023-05-14T10:41:03;8.48;;;4.95;;
55455;SDS011;63021;52.836;6.376;2023-05-14T10:43:38;10.65;;;5.32;;
55455;SDS011;63021;52.836;6.376;2023-05-14T10:46:05;10.10;;;4.97;;
55455;SDS011;63021;52.836;6.376;2023-05-14T10:48:32;7.63;;;5.00;;
55455;SDS011;63021;52.836;6.376;2023-05-14T10:50:58;7.82;;;4.30;;
55455;SDS011;63021;52.836;6.376;2023-05-14T10:53:34;11.43;;;5.78;;
55455;SDS011;63021;52.836;6.376;2023-05-14T10:56:08;8.88;;;5.13;;
55455;SDS011;63021;52.836;6.376;2023-05-14T10:58:36;9.88;;;4.40;;
55455;SDS011;63021;52.836;6.376;2023-05-14T11:01:02;7.50;;;3.70;;
55455;SDS011;63021;52.836;6.376;2023-05-14T11:03:30;8.15;;;3.22;;
55455;SDS011;63021;52.836;6.376;2023-05-14T11:05:56;7.82;;;3.97;;
55455;SDS011;63021;52.836;6.376;2023-05-14T11:08:23;6.93;;;3.50;;
55455;SDS011;63021;52.836;6.376;2023-05-14T11:10:50;8.20;;;3.95;;
55455;SDS011;63021;52.836;6.376;2023-05-14T11:13:16;10.07;;;3.78;;
55455;SDS011;63021;52.836;6.376;2023-05-14T11:15:43;11.10;;;4.25;;
55455;SDS011;63021;52.836;6.376;2023-05-14T11:18:12;9.65;;;4.30;;
55455;SDS011;63021;52.836;6.376;2023-05-14T11:20:38;11.75;;;4.35;;
55455;SDS011;63021;52.836;6.376;2023-05-14T11:23:03;11.15;;;3.97;;
55455;SDS011;63021;52.836;6.376;2023-05-14T11:25:29;7.82;;;3.63;;
55455;SDS011;63021;52.836;6.376;2023-05-14T11:27:54;7.32;;;4.03;;
55455;SDS011;63021;52.836;6.376;2023-05-14T11:30:22;7.70;;;4.25;;
55455;SDS011;63021;52.836;6.376;2023-05-14T11:32:48;8.00;;;3.63;;
55455;SDS011;63021;52.836;6.376;2023-05-14T11:35:14;4.65;;;3.28;;
55455;SDS011;63021;52.836;6.376;2023-05-14T11:37:41;6.78;;;3.15;;
55455;SDS011;63021;52.836;6.376;2023-05-14T11:40:07;5.22;;;3.28;;
55455;SDS011;63021;52.836;6.376;2023-05-14T11:42:38;4.88;;;3.05;;
55455;SDS011;63021;52.836;6.376;2023-05-14T11:45:03;7.43;;;3.65;;
55455;SDS011;63021;52.836;6.376;2023-05-14T11:47:29;5.47;;;3.00;;
55455;SDS011;63021;52.836;6.376;2023-05-14T11:49:55;4.97;;;3.05;;
55455;SDS011;63021;52.836;6.376;2023-05-14T11:52:21;8.13;;;3.17;;
55455;SDS011;63021;52.836;6.376;2023-05-14T11:54:46;7.40;;;3.53;;
55455;SDS011;63021;52.836;6.376;2023-05-14T11:57:15;6.75;;;3.35;;
55455;SDS011;63021;52.836;6.376;2023-05-14T11:59:42;7.60;;;3.60;;
55455;SDS011;63021;52.836;6.376;2023-05-14T12:02:09;4.70;;;3.05;;
55455;SDS011;63021;52.836;6.376;2023-05-14T12:04:36;8.63;;;3.70;;
55455;SDS011;63021;52.836;6.376;2023-05-14T12:07:06;6.65;;;3.60;;
55455;SDS011;63021;52.836;6.376;2023-05-14T12:09:38;7.63;;;4.13;;
55455;SDS011;63021;52.836;6.376;2023-05-14T12:12:13;8.77;;;3.38;;
55455;SDS011;63021;52.836;6.376;2023-05-14T12:14:39;7.60;;;3.40;;
55455;SDS011;63021;52.836;6.376;2023-05-14T12:17:13;7.10;;;3.42;;
55455;SDS011;63021;52.836;6.376;2023-05-14T12:19:40;8.30;;;4.05;;
55455;SDS011;63021;52.836;6.376;2023-05-14T12:22:07;6.07;;;3.47;;
55455;SDS011;63021;52.836;6.376;2023-05-14T12:24:34;10.27;;;5.10;;
55455;SDS011;63021;52.836;6.376;2023-05-14T12:27:00;8.80;;;3.33;;
55455;SDS011;63021;52.836;6.376;2023-05-14T12:29:26;4.97;;;3.83;;
55455;SDS011;63021;52.836;6.376;2023-05-14T12:31:51;8.70;;;4.45;;
55455;SDS011;63021;52.836;6.376;2023-05-14T12:34:17;4.28;;;3.20;;
55455;SDS011;63021;52.836;6.376;2023-05-14T12:36:42;8.00;;;3.55;;
55455;SDS011;63021;52.836;6.376;2023-05-14T12:39:09;8.27;;;4.05;;
55455;SDS011;63021;52.836;6.376;2023-05-14T12:41:35;9.57;;;4.18;;
55455;SDS011;63021;52.836;6.376;2023-05-14T12:44:01;5.88;;;4.18;;
55455;SDS011;63021;52.836;6.376;2023-05-14T12:46:28;6.30;;;3.50;;
55455;SDS011;63021;52.836;6.376;2023-05-14T12:48:54;7.50;;;4.88;;
55455;SDS011;63021;52.836;6.376;2023-05-14T12:51:20;9.57;;;4.95;;
55455;SDS011;63021;52.836;6.376;2023-05-14T12:53:45;10.73;;;4.20;;
55455;SDS011;63021;52.836;6.376;2023-05-14T12:56:11;6.38;;;3.72;;
55455;SDS011;63021;52.836;6.376;2023-05-14T12:58:37;9.15;;;3.83;;
55455;SDS011;63021;52.836;6.376;2023-05-14T13:01:03;11.80;;;3.92;;
55455;SDS011;63021;52.836;6.376;2023-05-14T13:03:29;5.93;;;3.70;;
55455;SDS011;63021;52.836;6.376;2023-05-14T13:05:55;5.10;;;2.90;;
55455;SDS011;63021;52.836;6.376;2023-05-14T13:08:23;7.00;;;3.15;;
55455;SDS011;63021;52.836;6.376;2023-05-14T13:10:52;9.07;;;3.55;;
55455;SDS011;63021;52.836;6.376;2023-05-14T13:13:20;4.93;;;3.33;;
55455;SDS011;63021;52.836;6.376;2023-05-14T13:15:46;5.10;;;3.85;;
55455;SDS011;63021;52.836;6.376;2023-05-14T13:18:12;4.07;;;3.28;;
55455;SDS011;63021;52.836;6.376;2023-05-14T13:20:38;4.32;;;3.33;;
55455;SDS011;63021;52.836;6.376;2023-05-14T13:23:03;5.65;;;3.53;;
55455;SDS011;63021;52.836;6.376;2023-05-14T13:25:28;8.27;;;3.47;;
55455;SDS011;63021;52.836;6.376;2023-05-14T13:27:54;9.32;;;3.75;;
55455;SDS011;63021;52.836;6.376;2023-05-14T13:30:20;6.28;;;3.72;;
55455;SDS011;63021;52.836;6.376;2023-05-14T13:32:45;3.65;;;3.25;;
55455;SDS011;63021;52.836;6.376;2023-05-14T13:35:11;5.70;;;2.88;;
55455;SDS011;63021;52.836;6.376;2023-05-14T13:37:37;7.40;;;3.20;;
55455;SDS011;63021;52.836;6.376;2023-05-14T13:40:02;4.72;;;2.85;;
55455;SDS011;63021;52.836;6.376;2023-05-14T13:42:29;7.63;;;4.25;;
55455;SDS011;63021;52.836;6.376;2023-05-14T13:44:56;4.40;;;3.42;;
55455;SDS011;63021;52.836;6.376;2023-05-14T13:47:22;6.28;;;3.30;;
55455;SDS011;63021;52.836;6.376;2023-05-14T13:49:49;4.97;;;3.08;;
55455;SDS011;63021;52.836;6.376;2023-05-14T13:52:14;4.22;;;3.17;;
55455;SDS011;63021;52.836;6.376;2023-05-14T13:54:40;4.03;;;3.28;;
55455;SDS011;63021;52.836;6.376;2023-05-14T13:57:05;5.90;;;3.53;;
55455;SDS011;63021;52.836;6.376;2023-05-14T13:59:31;8.80;;;3.53;;
55455;SDS011;63021;52.836;6.376;2023-05-14T14:01:56;4.43;;;3.17;;
55455;SDS011;63021;52.836;6.376;2023-05-14T14:04:22;5.38;;;2.92;;
55455;SDS011;63021;52.836;6.376;2023-05-14T14:06:49;4.38;;;2.50;;
55455;SDS011;63021;52.836;6.376;2023-05-14T14:09:15;4.32;;;3.20;;
55455;SDS011;63021;52.836;6.376;2023-05-14T14:11:40;3.63;;;2.80;;
55455;SDS011;63021;52.836;6.376;2023-05-14T14:14:05;4.65;;;2.90;;
55455;SDS011;63021;52.836;6.376;2023-05-14T14:16:31;5.78;;;3.33;;
55455;SDS011;63021;52.836;6.376;2023-05-14T14:18:56;9.52;;;2.83;;
55455;SDS011;63021;52.836;6.376;2023-05-14T14:21:22;6.22;;;3.00;;
55455;SDS011;63021;52.836;6.376;2023-05-14T14:23:47;324.13;;;37.00;;
55455;SDS011;63021;52.836;6.376;2023-05-14T14:26:12;36.08;;;5.40;;
55455;SDS011;63021;52.836;6.376;2023-05-14T14:28:38;7.43;;;3.08;;
55455;SDS011;63021;52.836;6.376;2023-05-14T14:31:04;24.17;;;18.42;;
55455;SDS011;63021;52.836;6.376;2023-05-14T14:33:30;35.35;;;25.85;;